createdAt,value
2022-10-02T00:02:27.298Z,10.16
2022-10-02T00:05:36.139Z,10.10
2022-10-02T00:08:43.741Z,9.93
2022-10-02T00:11:50.386Z,9.70
2022-10-02T00:15:00.570Z,9.64
2022-10-02T00:18:11.605Z,9.58
2022-10-02T00:21:25.204Z,9.44
2022-10-02T00:24:37.885Z,9.29
2022-10-02T00:28:29.183Z,9.10
2022-10-02T00:32:10.355Z,9.05
2022-10-02T00:35:31.056Z,8.96
2022-10-02T00:39:10.985Z,8.90
2022-10-02T00:42:25.469Z,8.81
2022-10-02T00:45:28.376Z,8.75
2022-10-02T00:48:36.927Z,8.71
2022-10-02T00:51:52.638Z,8.67
2022-10-02T00:55:31.821Z,8.66
2022-10-02T00:58:44.854Z,8.67
2022-10-02T01:01:55.895Z,8.67
2022-10-02T01:05:04.976Z,8.66
2022-10-02T01:08:08.531Z,8.63
2022-10-02T01:11:13.524Z,8.64
2022-10-02T01:14:16.307Z,8.65
2022-10-02T01:17:30.385Z,8.68
2022-10-02T01:20:41.729Z,8.77
2022-10-02T01:24:07.551Z,8.79
2022-10-02T01:27:10.526Z,9.02
2022-10-02T01:30:17.882Z,9.10
2022-10-02T01:33:21.204Z,9.17
2022-10-02T01:36:24.469Z,9.22
2022-10-02T01:39:27.499Z,9.31
2022-10-02T01:42:30.567Z,9.37
2022-10-02T01:45:52.685Z,9.38
2022-10-02T01:49:24.958Z,9.34
2022-10-02T01:53:06.522Z,9.27
2022-10-02T01:56:15.229Z,9.40
2022-10-02T01:59:56.790Z,9.61
2022-10-02T02:03:11.476Z,9.71
2022-10-02T02:06:26.094Z,9.88
2022-10-02T02:09:35.835Z,9.92
2022-10-02T02:12:41.707Z,9.97
2022-10-02T02:15:52.802Z,10.07
2022-10-02T02:19:20.856Z,9.98
2022-10-02T02:22:33.302Z,10.04
2022-10-02T02:25:41.034Z,9.95
2022-10-02T02:28:55.049Z,9.97
2022-10-02T02:32:00.214Z,9.90
2022-10-02T02:35:19.252Z,9.79
2022-10-02T02:38:30.422Z,9.90
2022-10-02T02:41:40.572Z,9.87
2022-10-02T02:44:50.166Z,9.85
2022-10-02T02:47:56.161Z,9.79
2022-10-02T02:51:09.378Z,9.88
2022-10-02T02:54:19.688Z,9.85
2022-10-02T02:57:28.846Z,9.90
2022-10-02T03:00:31.618Z,9.89
2022-10-02T03:03:34.499Z,9.94
2022-10-02T03:06:40.910Z,9.90
2022-10-02T03:09:58.119Z,9.83
2022-10-02T03:13:29.663Z,9.79
2022-10-02T03:16:38.666Z,9.81
2022-10-02T03:19:50.526Z,9.92
2022-10-02T03:23:00.103Z,9.98
2022-10-02T03:26:09.694Z,10.27
2022-10-02T03:29:19.581Z,10.44
2022-10-02T03:32:24.175Z,10.56
2022-10-02T03:35:28.221Z,10.54
2022-10-02T03:38:31.884Z,10.51
2022-10-02T03:41:34.802Z,10.50
2022-10-02T03:44:37.637Z,10.60
2022-10-02T03:47:40.519Z,10.62
2022-10-02T03:50:43.208Z,10.58
2022-10-02T03:53:46.222Z,10.63
2022-10-02T03:56:54.446Z,10.60
2022-10-02T04:00:09.746Z,10.69
2022-10-02T04:03:21.633Z,10.73
2022-10-02T04:06:38.429Z,10.77
2022-10-02T04:09:51.665Z,10.78
2022-10-02T04:13:02.246Z,10.78
2022-10-02T04:16:42.587Z,10.73
2022-10-02T04:19:53.028Z,10.72
2022-10-02T04:23:26.463Z,10.73
2022-10-02T04:26:34.071Z,10.72
2022-10-02T04:29:47.653Z,10.71
2022-10-02T04:32:50.982Z,10.71
2022-10-02T04:36:20.053Z,10.86
2022-10-02T04:39:36.011Z,10.83
2022-10-02T04:42:38.866Z,10.65
2022-10-02T04:45:50.349Z,10.61
2022-10-02T04:49:15.149Z,10.44
2022-10-02T04:52:53.201Z,10.44
2022-10-02T04:56:07.596Z,10.38
2022-10-02T04:59:13.357Z,10.28
2022-10-02T05:02:56.341Z,10.17
2022-10-02T05:06:17.289Z,10.17
2022-10-02T05:09:31.708Z,10.18
2022-10-02T05:13:16.449Z,10.08
2022-10-02T05:34:53.302Z,10.46
2022-10-02T05:38:10.051Z,10.51
2022-10-02T05:41:12.537Z,11.66
2022-10-02T05:44:20.321Z,12.92
2022-10-02T05:47:30.539Z,13.98
2022-10-02T05:50:37.939Z,14.83
2022-10-02T05:53:45.405Z,15.51
2022-10-02T05:56:54.830Z,15.71
2022-10-02T06:00:22.261Z,16.27
2022-10-02T06:03:33.381Z,16.74
2022-10-02T06:06:47.963Z,16.97
2022-10-02T06:10:19.630Z,17.31
2022-10-02T06:13:27.547Z,17.63
2022-10-02T06:16:40.126Z,17.52
2022-10-02T06:20:04.746Z,17.95
2022-10-02T06:23:20.839Z,18.60
2022-10-02T06:26:36.850Z,18.79
2022-10-02T06:29:45.731Z,19.08
2022-10-02T06:33:17.586Z,19.19
2022-10-02T06:36:48.620Z,19.18
2022-10-02T06:39:53.962Z,19.14
2022-10-02T06:43:04.632Z,19.19
2022-10-02T06:46:39.569Z,19.21
2022-10-02T06:49:48.465Z,18.85
2022-10-02T06:53:06.011Z,19.62
2022-10-02T06:56:27.407Z,19.71
2022-10-02T06:59:42.090Z,20.47
2022-10-02T07:03:02.741Z,20.00
2022-10-02T07:06:21.927Z,20.03
2022-10-02T07:09:43.006Z,19.78
2022-10-02T07:12:48.149Z,20.01
2022-10-02T07:16:23.447Z,20.06
2022-10-02T07:19:44.290Z,20.50
2022-10-02T07:23:09.943Z,19.93
2022-10-02T07:26:33.573Z,20.11
2022-10-02T07:30:01.646Z,19.31
2022-10-02T07:33:29.935Z,20.39
2022-10-02T07:36:52.932Z,20.11
2022-10-02T07:40:34.772Z,19.77
2022-10-02T07:43:43.755Z,19.39
2022-10-02T07:47:02.286Z,19.56
2022-10-02T07:50:31.345Z,19.57
2022-10-02T07:53:49.739Z,19.78
2022-10-02T07:56:56.795Z,19.50
2022-10-02T08:00:06.282Z,19.42
2022-10-02T08:03:21.471Z,19.84
2022-10-02T08:06:24.367Z,20.04
2022-10-02T08:09:36.594Z,20.17
2022-10-02T08:13:06.017Z,19.98
2022-10-02T08:16:10.666Z,20.07
2022-10-02T08:19:17.397Z,20.26
2022-10-02T08:22:33.841Z,20.39
2022-10-02T08:25:49.463Z,19.45
2022-10-02T08:29:05.637Z,19.45
2022-10-02T08:32:13.040Z,19.11
2022-10-02T08:35:17.948Z,18.57
2022-10-02T08:38:36.566Z,18.28
2022-10-02T08:42:01.938Z,17.89
2022-10-02T08:45:36.720Z,17.82
2022-10-02T08:49:07.316Z,17.63
2022-10-02T08:52:29.156Z,17.88
2022-10-02T08:55:53.750Z,18.08
2022-10-02T08:59:26.534Z,18.22
2022-10-02T09:02:50.630Z,18.03
2022-10-02T09:05:59.389Z,17.87
2022-10-02T09:09:40.036Z,17.79
2022-10-02T09:13:05.385Z,17.68
2022-10-02T09:16:23.626Z,17.29
2022-10-02T09:19:49.723Z,16.95
2022-10-02T09:23:14.106Z,16.62
2022-10-02T09:26:34.893Z,16.29
2022-10-02T09:30:04.722Z,16.30
2022-10-02T09:33:24.207Z,16.41
2022-10-02T09:36:30.230Z,16.35
2022-10-02T09:39:45.416Z,16.70
2022-10-02T09:43:15.558Z,16.65
2022-10-02T09:46:52.949Z,16.89
2022-10-02T09:50:22.238Z,16.95
2022-10-02T09:53:38.324Z,16.95
2022-10-02T09:57:00.456Z,16.87
2022-10-02T10:00:34.532Z,17.01
2022-10-02T10:03:49.288Z,17.10
2022-10-02T10:07:16.303Z,17.11
2022-10-02T10:10:42.679Z,16.94
2022-10-02T10:13:56.002Z,17.11
2022-10-02T10:17:39.198Z,16.91
2022-10-02T10:20:56.693Z,17.22
2022-10-02T10:24:19.486Z,17.10
2022-10-02T10:27:59.190Z,17.13
2022-10-02T10:31:35.676Z,17.10
2022-10-02T10:34:59.947Z,17.12
2022-10-02T10:38:33.346Z,17.14
2022-10-02T10:42:14.648Z,16.97
2022-10-02T10:45:34.592Z,16.88
2022-10-02T10:49:09.727Z,17.09
2022-10-02T10:52:39.076Z,17.33
2022-10-02T10:55:47.668Z,17.44
2022-10-02T10:59:06.418Z,17.42
2022-10-02T11:02:21.103Z,17.51
2022-10-02T11:05:57.950Z,17.64
2022-10-02T11:09:26.900Z,17.58
2022-10-02T11:13:11.538Z,17.42
2022-10-02T11:16:55.179Z,17.51
2022-10-02T11:20:37.860Z,17.43
2022-10-02T11:23:55.384Z,17.54
2022-10-02T11:27:35.951Z,17.49
2022-10-02T11:31:19.045Z,17.42
2022-10-02T11:34:43.474Z,17.37
2022-10-02T11:38:09.711Z,17.38
2022-10-02T11:41:36.172Z,17.17
2022-10-02T11:45:04.516Z,17.01
2022-10-02T11:48:34.727Z,16.94
2022-10-02T11:51:50.918Z,16.95
2022-10-02T11:54:59.753Z,16.80
2022-10-02T11:58:21.255Z,16.83
2022-10-02T12:01:37.371Z,16.87
2022-10-02T12:04:47.272Z,16.74
2022-10-02T12:08:19.157Z,16.85
2022-10-02T12:11:36.420Z,17.09
2022-10-02T12:15:14.607Z,17.47
2022-10-02T12:18:33.199Z,17.71
2022-10-02T12:22:22.530Z,17.85
2022-10-02T12:26:08.861Z,18.18
2022-10-02T12:29:48.463Z,18.04
2022-10-02T12:33:04.089Z,17.89
2022-10-02T12:36:33.573Z,17.82
2022-10-02T12:40:06.133Z,17.65
2022-10-02T12:43:27.689Z,17.66
2022-10-02T12:46:59.630Z,17.85
2022-10-02T12:50:21.985Z,17.51
2022-10-02T12:54:06.256Z,17.45
2022-10-02T12:57:45.534Z,17.20
2022-10-02T13:00:48.539Z,16.90
2022-10-02T13:04:18.664Z,17.02
2022-10-02T13:07:30.387Z,17.11
2022-10-02T13:11:07.721Z,16.98
2022-10-02T13:14:44.706Z,16.88
2022-10-02T13:17:50.235Z,16.82
2022-10-02T13:21:04.973Z,16.82
2022-10-02T13:24:16.333Z,16.71
2022-10-02T13:27:34.303Z,16.58
2022-10-02T13:30:49.748Z,16.66
2022-10-02T13:34:06.023Z,16.77
2022-10-02T13:37:17.562Z,16.86
2022-10-02T13:40:55.918Z,16.94
2022-10-02T13:44:37.283Z,16.77
2022-10-02T13:48:05.815Z,16.70
2022-10-02T13:51:18.999Z,16.63
2022-10-02T13:55:04.789Z,16.62
2022-10-02T13:58:39.015Z,16.57
2022-10-02T14:02:04.843Z,16.56
2022-10-02T14:05:38.185Z,16.48
2022-10-02T14:09:09.752Z,16.56
2022-10-02T14:12:22.934Z,16.42
2022-10-02T14:15:46.963Z,16.35
2022-10-02T14:19:03.082Z,16.32
2022-10-02T14:22:13.197Z,16.24
2022-10-02T14:25:36.222Z,16.17
2022-10-02T14:36:09.713Z,15.94
2022-10-02T14:39:41.886Z,15.83
2022-10-02T14:43:11.665Z,15.64
2022-10-02T14:46:38.808Z,15.48
2022-10-02T14:50:14.500Z,15.33
2022-10-02T14:53:35.662Z,15.18
2022-10-02T14:56:44.180Z,15.07
2022-10-02T15:00:06.220Z,14.91
2022-10-02T15:03:12.251Z,14.96
2022-10-02T15:06:25.915Z,14.93
2022-10-02T15:09:50.091Z,14.87
2022-10-02T15:13:00.992Z,14.86
2022-10-02T15:16:44.962Z,14.75
2022-10-02T15:20:11.203Z,14.66
2022-10-02T15:23:43.012Z,14.68
2022-10-02T15:26:53.134Z,14.62
2022-10-02T15:30:12.947Z,14.55
2022-10-02T15:33:37.232Z,14.38
2022-10-02T15:37:09.558Z,14.36
2022-10-02T15:40:21.471Z,14.21
2022-10-02T15:43:33.615Z,14.17
2022-10-02T15:47:02.649Z,14.11
2022-10-02T15:50:33.353Z,13.89
2022-10-02T15:53:58.214Z,13.96
2022-10-02T15:57:26.701Z,13.90
2022-10-02T16:01:00.296Z,13.83
2022-10-02T16:04:12.889Z,13.73
2022-10-02T16:07:21.615Z,13.70
2022-10-02T16:10:26.664Z,13.68
2022-10-02T16:13:56.714Z,13.53
2022-10-02T16:17:06.258Z,13.54
2022-10-02T16:20:21.023Z,13.51
2022-10-02T16:23:45.365Z,13.47
2022-10-02T16:27:25.722Z,13.41
2022-10-02T16:30:37.654Z,13.36
2022-10-02T16:33:43.148Z,13.27
2022-10-02T16:36:54.002Z,13.23
2022-10-02T16:40:18.171Z,13.17
2022-10-02T16:43:39.056Z,13.12
2022-10-02T16:46:50.761Z,13.09
2022-10-02T16:50:12.035Z,13.05
2022-10-02T16:53:46.727Z,13.04
2022-10-02T16:57:26.239Z,12.99
2022-10-02T17:00:31.529Z,12.89
2022-10-02T17:03:42.633Z,12.93
2022-10-02T17:07:21.983Z,12.90
2022-10-02T17:10:53.421Z,12.84
2022-10-02T17:14:28.216Z,12.91
2022-10-02T17:17:36.986Z,12.86
2022-10-02T17:20:48.942Z,12.82
2022-10-02T17:24:19.567Z,12.83
2022-10-02T17:27:48.206Z,12.81
2022-10-02T17:31:03.310Z,12.81
2022-10-02T17:34:22.045Z,12.83
2022-10-02T17:37:45.452Z,12.82
2022-10-02T17:41:17.404Z,12.83
2022-10-02T17:44:45.385Z,12.80
2022-10-02T17:47:53.874Z,12.77
2022-10-02T17:51:52.808Z,12.76
2022-10-02T17:55:51.906Z,12.71
2022-10-02T17:59:24.146Z,12.71
2022-10-02T18:02:29.840Z,12.60
2022-10-02T18:05:56.387Z,12.64
2022-10-02T18:09:23.134Z,12.62
2022-10-02T18:12:38.080Z,12.63
2022-10-02T18:16:06.198Z,12.56
2022-10-02T18:19:20.683Z,12.71
2022-10-02T18:22:45.488Z,12.76
2022-10-02T18:26:06.400Z,12.91
2022-10-02T18:29:43.845Z,12.98
2022-10-02T18:32:47.119Z,13.04
2022-10-02T18:36:03.399Z,13.05
2022-10-02T18:39:44.903Z,13.14
2022-10-02T18:43:21.138Z,13.22
2022-10-02T18:46:49.669Z,13.25
2022-10-02T18:50:29.224Z,13.25
2022-10-02T18:53:59.143Z,13.23
2022-10-02T18:57:07.909Z,13.22
2022-10-02T19:00:24.566Z,13.21
2022-10-02T19:03:37.522Z,13.16
2022-10-02T19:06:56.910Z,13.17
2022-10-02T19:10:26.372Z,13.17
2022-10-02T19:13:30.019Z,13.11
2022-10-02T19:16:32.719Z,13.14
2022-10-02T19:19:36.960Z,13.03
2022-10-02T19:22:41.062Z,13.08
2022-10-02T19:25:47.880Z,13.09
2022-10-02T19:29:06.054Z,13.07
2022-10-02T19:32:23.092Z,13.09
2022-10-02T19:35:34.589Z,13.07
2022-10-02T19:38:39.938Z,13.06
2022-10-02T19:41:44.212Z,13.03
2022-10-02T19:44:59.421Z,13.05
2022-10-02T19:48:08.238Z,13.00
2022-10-02T19:51:21.197Z,12.95
2022-10-02T19:54:33.072Z,12.88
2022-10-02T19:57:40.547Z,12.78
2022-10-02T20:00:43.255Z,12.75
2022-10-02T20:03:51.519Z,12.67
2022-10-02T20:06:57.361Z,12.63
2022-10-02T20:10:12.215Z,12.55
2022-10-02T20:13:22.189Z,12.53
2022-10-02T20:16:44.730Z,12.45
2022-10-02T20:19:56.161Z,12.40
2022-10-02T20:23:04.490Z,12.39
2022-10-02T20:26:11.360Z,12.25
2022-10-02T20:29:26.986Z,12.24
2022-10-02T20:32:42.157Z,12.26
2022-10-02T20:35:54.934Z,12.23
2022-10-02T20:39:00.417Z,12.19
2022-10-02T20:42:09.881Z,12.18
2022-10-02T20:45:13.920Z,12.09
2022-10-02T20:48:43.581Z,12.11
2022-10-02T20:52:13.887Z,12.14
2022-10-02T20:55:30.329Z,12.15
2022-10-02T20:59:02.119Z,12.16
2022-10-02T21:02:27.512Z,12.17
2022-10-02T21:06:08.285Z,12.14
2022-10-02T21:09:36.258Z,12.15
2022-10-02T21:12:44.364Z,12.09
2022-10-02T21:16:22.415Z,12.18
2022-10-02T21:20:05.147Z,12.18
2022-10-02T21:23:32.944Z,12.22
2022-10-02T21:27:12.685Z,12.20
2022-10-02T21:30:18.350Z,12.29
2022-10-02T21:33:49.530Z,12.24
2022-10-02T21:37:07.356Z,12.17
2022-10-02T21:40:39.514Z,12.13
2022-10-02T21:44:06.834Z,12.12
2022-10-02T21:47:40.298Z,12.01
2022-10-02T21:51:11.928Z,12.10
2022-10-02T21:54:47.784Z,12.13
2022-10-02T21:58:24.621Z,12.13
2022-10-02T22:02:07.109Z,12.24
2022-10-02T22:05:35.392Z,12.24
2022-10-02T22:08:56.805Z,12.28
2022-10-02T22:12:39.654Z,12.28
2022-10-02T22:16:12.301Z,12.24
2022-10-02T22:19:47.378Z,12.31
2022-10-02T22:23:21.042Z,12.31
2022-10-02T22:26:23.995Z,12.29
2022-10-02T22:29:45.112Z,12.43
2022-10-02T22:33:12.069Z,12.44
2022-10-02T22:36:51.533Z,12.52
2022-10-02T22:40:14.335Z,12.50
2022-10-02T22:43:33.656Z,12.52
2022-10-02T22:46:47.070Z,12.55
2022-10-02T22:49:52.436Z,12.45
2022-10-02T22:53:20.323Z,12.54
2022-10-02T22:56:27.038Z,12.51
2022-10-02T22:59:38.986Z,12.39
2022-10-02T23:03:05.745Z,12.41
2022-10-02T23:06:21.709Z,12.44
2022-10-02T23:09:48.418Z,12.38
2022-10-02T23:13:15.333Z,12.38
2022-10-02T23:16:20.674Z,12.40
2022-10-02T23:19:45.728Z,12.40
2022-10-02T23:22:58.276Z,12.35
2022-10-02T23:26:47.553Z,12.31
2022-10-02T23:30:00.384Z,12.32
2022-10-02T23:33:17.894Z,12.24
2022-10-02T23:36:45.583Z,12.21
2022-10-02T23:39:52.582Z,12.15
2022-10-02T23:43:03.166Z,12.06
2022-10-02T23:46:14.992Z,12.09
2022-10-02T23:49:30.532Z,12.16
2022-10-02T23:52:51.119Z,12.13
2022-10-02T23:56:23.931Z,12.02
2022-10-02T23:59:51.884Z,12.06
